createdAt,value
2024-02-12T00:01:39.735Z,98828.32
2024-02-12T00:04:32.178Z,98832.40
2024-02-12T00:07:16.479Z,98827.67
2024-02-12T00:09:45.725Z,98831.41
2024-02-12T00:12:31.550Z,98825.73
2024-02-12T00:15:00.391Z,98820.73
2024-02-12T00:18:04.901Z,98820.50
2024-02-12T00:21:13.633Z,98821.51
2024-02-12T00:24:01.954Z,98821.61
2024-02-12T00:27:29.897Z,98819.98
2024-02-12T00:30:19.068Z,98821.92
2024-02-12T00:33:26.958Z,98822.39
2024-02-12T00:36:35.464Z,98825.06
2024-02-12T00:39:44.202Z,98827.48
2024-02-12T00:42:35.086Z,98818.05
2024-02-12T00:46:02.887Z,98820.48
2024-02-12T00:48:52.130Z,98822.48
2024-02-12T00:52:00.206Z,98824.58
2024-02-12T00:54:49.777Z,98824.59
2024-02-12T00:57:43.629Z,98824.87
2024-02-12T01:00:34.192Z,98821.10
2024-02-12T01:03:26.010Z,98819.79
2024-02-12T01:06:54.466Z,98819.63
2024-02-12T01:10:02.579Z,98824.70
2024-02-12T01:12:50.748Z,98823.67
2024-02-12T01:15:29.121Z,98821.89
2024-02-12T01:18:37.326Z,98821.39
2024-02-12T01:22:05.071Z,98826.23
2024-02-12T01:24:58.363Z,98823.65
2024-02-12T01:27:48.230Z,98822.54
2024-02-12T01:30:52.454Z,98820.31
2024-02-12T01:34:20.546Z,98823.13
2024-02-12T01:37:49.643Z,98823.48
2024-02-12T01:41:17.450Z,98818.77
2024-02-12T01:44:46.418Z,98817.61
2024-02-12T01:47:54.554Z,98814.04
2024-02-12T01:51:06.062Z,98813.67
2024-02-12T01:54:14.560Z,98813.09
2024-02-12T01:57:19.098Z,98813.66
2024-02-12T02:00:46.824Z,98811.16
2024-02-12T02:03:42.813Z,98809.22
2024-02-12T02:06:32.628Z,98808.88
2024-02-12T02:09:23.187Z,98806.73
2024-02-12T02:12:46.981Z,98808.20
2024-02-12T02:15:36.226Z,98817.48
2024-02-12T02:19:04.046Z,98817.82
2024-02-12T02:22:15.850Z,98818.40
2024-02-12T02:25:23.588Z,98821.95
2024-02-12T02:28:51.632Z,98825.33
2024-02-12T02:31:24.454Z,98822.08
2024-02-12T02:34:32.648Z,98822.14
2024-02-12T02:38:00.538Z,98826.81
2024-02-12T02:41:08.279Z,98824.77
2024-02-12T02:43:58.450Z,98825.82
2024-02-12T02:47:26.055Z,98828.65
2024-02-12T02:50:34.140Z,98833.48
2024-02-12T02:53:42.365Z,98833.80
2024-02-12T02:56:31.858Z,98831.10
2024-02-12T02:59:59.429Z,98829.97
2024-02-12T03:03:27.130Z,98834.27
2024-02-12T03:06:35.740Z,98842.21
2024-02-12T03:09:29.701Z,98845.97
2024-02-12T03:12:38.193Z,98848.63
2024-02-12T03:15:07.427Z,98846.11
2024-02-12T03:17:57.972Z,98846.81
2024-02-12T03:21:25.659Z,98849.92
2024-02-12T03:24:15.348Z,98849.25
2024-02-12T03:27:42.886Z,98848.34
2024-02-12T03:30:20.827Z,98851.66
2024-02-12T03:33:29.549Z,98854.13
2024-02-12T03:35:58.346Z,98860.70
2024-02-12T03:38:32.544Z,98865.54
2024-02-12T03:42:00.014Z,98868.65
2024-02-12T03:45:11.393Z,98872.01
2024-02-12T03:48:21.855Z,98872.87
2024-02-12T03:51:13.426Z,98871.32
2024-02-12T03:53:45.185Z,98872.05
2024-02-12T03:56:53.399Z,98868.37
2024-02-12T04:00:01.567Z,98869.98
2024-02-12T04:03:00.427Z,98872.05
2024-02-12T04:06:28.012Z,98870.47
2024-02-12T04:09:24.881Z,98867.98
2024-02-12T04:11:55.166Z,98866.66
2024-02-12T04:14:35.711Z,98868.31
2024-02-12T04:18:03.399Z,98865.95
2024-02-12T04:20:53.851Z,98864.70
2024-02-12T04:23:49.362Z,98865.83
2024-02-12T04:26:59.667Z,98871.74
2024-02-12T04:29:45.973Z,98871.64
2024-02-12T04:32:55.600Z,98870.95
2024-02-12T04:35:48.730Z,98872.58
2024-02-12T04:38:56.923Z,98865.84
2024-02-12T04:42:05.390Z,98869.36
2024-02-12T04:45:33.275Z,98862.79
2024-02-12T04:48:43.284Z,98863.33
2024-02-12T04:51:50.845Z,98863.95
2024-02-12T04:54:48.259Z,98863.77
2024-02-12T04:58:16.195Z,98864.59
2024-02-12T05:00:47.850Z,98862.55
2024-02-12T05:03:16.508Z,98856.27
2024-02-12T05:06:42.527Z,98856.40
2024-02-12T05:09:32.223Z,98858.54
2024-02-12T05:12:40.350Z,98860.43
2024-02-12T05:15:56.126Z,98863.92
2024-02-12T05:19:05.842Z,98868.46
2024-02-12T05:22:13.323Z,98867.69
2024-02-12T05:25:28.934Z,98867.88
2024-02-12T05:28:33.534Z,98867.73
2024-02-12T05:31:11.278Z,98870.59
2024-02-12T05:33:44.868Z,98880.42
2024-02-12T05:37:08.097Z,98882.63
2024-02-12T05:40:08.527Z,98897.44
2024-02-12T05:43:36.243Z,98897.88
2024-02-12T05:46:52.545Z,98900.59
2024-02-12T05:50:20.335Z,98905.04
2024-02-12T05:53:28.432Z,98903.38
2024-02-12T05:56:52.500Z,98900.25
2024-02-12T06:00:20.367Z,98898.42
2024-02-12T06:03:48.315Z,98906.23
2024-02-12T06:06:36.612Z,98914.23
2024-02-12T06:10:04.216Z,98915.86
2024-02-12T06:12:34.092Z,98919.65
2024-02-12T06:15:22.202Z,98917.64
2024-02-12T06:18:05.400Z,98919.09
2024-02-12T06:21:33.060Z,98919.05
2024-02-12T06:24:22.167Z,98912.27
2024-02-12T06:26:51.559Z,98910.22
2024-02-12T06:29:59.361Z,98912.25
2024-02-12T06:32:52.613Z,98910.61
2024-02-12T06:35:41.495Z,98909.23
2024-02-12T06:38:31.145Z,98908.83
2024-02-12T06:41:21.934Z,98908.12
2024-02-12T06:44:30.573Z,98905.36
2024-02-12T06:47:13.780Z,98912.53
2024-02-12T06:50:05.842Z,98912.90
2024-02-12T06:52:35.016Z,98914.23
2024-02-12T06:55:09.224Z,98914.97
2024-02-12T06:57:57.014Z,98916.09
2024-02-12T07:01:05.520Z,98909.73
2024-02-12T07:04:14.180Z,98909.84
2024-02-12T07:06:49.808Z,98909.64
2024-02-12T07:09:20.353Z,98910.35
2024-02-12T07:11:59.008Z,98916.27
2024-02-12T07:14:50.340Z,98920.69
2024-02-12T07:17:58.057Z,98924.55
2024-02-12T07:21:06.893Z,98931.59
2024-02-12T07:24:33.446Z,98938.59
2024-02-12T07:27:23.427Z,98938.55
2024-02-12T07:30:12.077Z,98943.19
2024-02-12T07:33:02.346Z,98954.66
2024-02-12T07:35:31.376Z,98953.56
2024-02-12T07:38:29.064Z,98947.67
2024-02-12T07:41:36.912Z,98952.48
2024-02-12T07:44:46.250Z,98957.02
2024-02-12T07:47:55.178Z,98958.56
2024-02-12T07:50:43.322Z,98966.14
2024-02-12T07:53:58.859Z,98965.48
2024-02-12T07:56:28.716Z,98970.02
2024-02-12T07:59:37.182Z,98977.11
2024-02-12T08:02:45.503Z,98980.25
2024-02-12T08:05:34.414Z,98978.75
2024-02-12T08:08:42.176Z,98978.15
2024-02-12T08:11:30.987Z,98990.20
2024-02-12T08:14:00.003Z,98992.08
2024-02-12T08:17:11.253Z,98996.20
2024-02-12T08:20:00.020Z,98994.87
2024-02-12T08:22:57.129Z,98996.13
2024-02-12T08:26:05.158Z,98998.20
2024-02-12T08:28:55.356Z,99001.05
2024-02-12T08:32:22.949Z,99006.92
2024-02-12T08:35:33.527Z,98999.92
2024-02-12T08:38:21.487Z,98998.52
2024-02-12T08:41:09.735Z,98996.77
2024-02-12T08:44:19.717Z,98999.55
2024-02-12T08:47:28.039Z,99002.98
2024-02-12T08:50:21.714Z,99007.48
2024-02-12T08:53:29.756Z,99009.30
2024-02-12T08:56:23.080Z,99009.70
2024-02-12T08:59:31.524Z,99012.51
2024-02-12T09:02:40.524Z,99007.11
2024-02-12T09:06:08.141Z,99008.82
2024-02-12T09:08:57.794Z,99008.27
2024-02-12T09:11:46.007Z,99010.77
2024-02-12T09:14:43.506Z,99009.98
2024-02-12T09:17:33.269Z,99011.79
2024-02-12T09:20:41.691Z,99011.19
2024-02-12T09:23:29.838Z,99013.48
2024-02-12T09:26:27.936Z,99017.99
2024-02-12T09:29:36.947Z,99021.17
2024-02-12T09:32:06.632Z,99018.38
2024-02-12T09:34:54.359Z,99024.65
2024-02-12T09:38:02.041Z,99021.56
2024-02-12T09:41:25.783Z,99022.80
2024-02-12T09:44:14.598Z,99026.60
2024-02-12T09:47:10.721Z,99022.77
2024-02-12T09:50:19.334Z,99017.63
2024-02-12T09:53:07.568Z,99021.61
2024-02-12T09:55:56.732Z,99023.69
2024-02-12T09:58:30.236Z,99029.02
2024-02-12T10:01:41.550Z,99029.35
2024-02-12T10:05:04.297Z,99030.52
2024-02-12T10:08:32.194Z,99039.28
2024-02-12T10:11:04.779Z,99037.27
2024-02-12T10:13:37.091Z,99035.98
2024-02-12T10:16:41.147Z,99039.17
2024-02-12T10:19:52.800Z,99038.83
2024-02-12T10:22:41.351Z,99042.05
2024-02-12T10:25:40.018Z,99043.81
2024-02-12T10:28:30.774Z,99042.17
2024-02-12T10:31:18.667Z,99039.92
2024-02-12T10:34:11.116Z,99034.61
2024-02-12T10:37:27.498Z,99033.27
2024-02-12T10:40:20.868Z,99034.67
2024-02-12T10:43:37.613Z,99035.06
2024-02-12T10:46:30.713Z,99034.82
2024-02-12T10:49:19.758Z,99037.39
2024-02-12T10:51:56.456Z,99038.48
2024-02-12T10:55:04.472Z,99038.56
2024-02-12T10:57:48.678Z,99035.33
2024-02-12T11:01:16.754Z,99037.87
2024-02-12T11:04:04.385Z,99042.06
2024-02-12T11:06:53.072Z,99042.71
2024-02-12T11:09:44.462Z,99037.73
2024-02-12T11:12:53.216Z,99041.29
2024-02-12T11:15:42.359Z,99038.30
2024-02-12T11:18:46.653Z,99037.35
2024-02-12T11:21:44.013Z,99040.70
2024-02-12T11:24:52.795Z,99033.52
2024-02-12T11:28:01.378Z,99035.02
2024-02-12T11:30:45.711Z,99036.42
2024-02-12T11:33:57.410Z,99035.13
2024-02-12T11:37:05.164Z,99039.15
2024-02-12T11:39:57.466Z,99039.58
2024-02-12T11:43:01.709Z,99039.38
2024-02-12T11:46:11.266Z,99039.84
2024-02-12T11:49:00.409Z,99036.02
2024-02-12T11:51:56.153Z,99037.23
2024-02-12T11:55:04.069Z,99034.22
2024-02-12T11:57:53.596Z,99035.99
2024-02-12T12:01:05.902Z,99030.43
2024-02-12T12:03:42.305Z,99029.23
2024-02-12T12:06:50.481Z,99028.09
2024-02-12T12:10:18.138Z,99026.56
2024-02-12T12:13:25.892Z,99025.28
2024-02-12T12:16:17.529Z,99023.70
2024-02-12T12:19:25.348Z,99018.77
2024-02-12T12:22:13.593Z,99019.61
2024-02-12T12:25:25.278Z,99021.98
2024-02-12T12:28:30.842Z,99025.33
2024-02-12T12:31:21.031Z,99022.86
2024-02-12T12:34:11.209Z,99026.52
2024-02-12T12:37:19.632Z,99026.67
2024-02-12T12:40:09.844Z,99028.70
2024-02-12T12:43:18.509Z,99031.55
2024-02-12T12:46:08.667Z,99034.48
2024-02-12T12:49:19.500Z,99035.02
2024-02-12T12:52:09.289Z,99037.66
2024-02-12T12:55:21.327Z,99038.22
2024-02-12T12:58:49.201Z,99042.77
2024-02-12T13:01:44.900Z,99044.70
2024-02-12T13:04:14.265Z,99046.09
2024-02-12T13:07:23.350Z,99045.94
2024-02-12T13:10:40.681Z,99048.27
2024-02-12T13:13:36.970Z,99045.83
2024-02-12T13:16:45.450Z,99049.82
2024-02-12T13:19:43.354Z,99051.08
2024-02-12T13:23:11.218Z,99053.95
2024-02-12T13:26:01.156Z,99059.58
2024-02-12T13:29:28.976Z,99056.30
2024-02-12T13:32:13.987Z,99060.60
2024-02-12T13:35:41.854Z,99065.06
2024-02-12T13:38:34.376Z,99066.30
2024-02-12T13:41:06.998Z,99065.52
2024-02-12T13:43:56.131Z,99064.57
2024-02-12T13:46:45.205Z,99070.66
2024-02-12T13:49:33.377Z,99071.05
2024-02-12T13:52:25.917Z,99073.70
2024-02-12T13:55:36.408Z,99076.80
2024-02-12T13:58:07.430Z,99080.62
2024-02-12T14:01:29.912Z,99081.65
2024-02-12T14:04:43.522Z,99080.74
2024-02-12T14:07:51.557Z,99082.48
2024-02-12T14:10:39.640Z,99087.39
2024-02-12T14:13:48.150Z,99095.02
2024-02-12T14:17:16.265Z,99095.78
2024-02-12T14:20:13.605Z,99096.48
2024-02-12T14:23:04.355Z,99096.56
2024-02-12T14:26:01.951Z,99100.98
2024-02-12T14:28:51.658Z,99100.00
2024-02-12T14:32:34.819Z,99100.58
2024-02-12T14:34:40.025Z,99098.08
2024-02-12T14:37:29.914Z,99100.48
2024-02-12T14:40:38.616Z,99103.20
2024-02-12T14:44:01.748Z,99104.41
2024-02-12T14:47:09.762Z,99107.59
2024-02-12T14:50:17.539Z,99110.75
2024-02-12T14:53:07.921Z,99112.20
2024-02-12T14:55:55.861Z,99113.39
2024-02-12T14:59:23.752Z,99114.64
2024-02-12T15:02:15.763Z,99116.59
2024-02-12T15:05:04.629Z,99117.50
2024-02-12T15:08:13.624Z,99117.14
2024-02-12T15:11:06.452Z,99116.23
2024-02-12T15:14:34.284Z,99121.33
2024-02-12T15:17:42.724Z,99125.76
2024-02-12T15:21:10.338Z,99133.95
2024-02-12T15:24:05.893Z,99136.80
2024-02-12T15:26:55.186Z,99141.39
2024-02-12T15:29:44.438Z,99147.70
2024-02-12T15:33:00.399Z,99147.71
2024-02-12T15:36:07.797Z,99156.94
2024-02-12T15:38:58.332Z,99156.27
2024-02-12T15:41:29.608Z,99159.96
2024-02-12T15:44:33.051Z,99168.83
2024-02-12T15:47:25.388Z,99169.02
2024-02-12T15:50:33.216Z,99174.31
2024-02-12T15:54:00.849Z,99177.70
2024-02-12T15:57:08.480Z,99177.61
2024-02-12T16:00:18.382Z,99177.63
2024-02-12T16:03:34.395Z,99186.52
2024-02-12T16:06:05.545Z,99186.05
2024-02-12T16:08:53.446Z,99190.14
2024-02-12T16:11:43.525Z,99195.61
2024-02-12T16:14:33.521Z,99202.02
2024-02-12T16:17:57.419Z,99209.25
2024-02-12T16:21:08.748Z,99210.21
2024-02-12T16:24:20.123Z,99216.64
2024-02-12T16:26:49.096Z,99219.80
2024-02-12T16:30:16.640Z,99224.80
2024-02-12T16:33:05.158Z,99230.05
2024-02-12T16:36:32.931Z,99230.85
2024-02-12T16:39:49.060Z,99238.49
2024-02-12T16:42:38.810Z,99237.52
2024-02-12T16:45:47.271Z,99241.80
2024-02-12T16:49:15.825Z,99246.16
2024-02-12T16:52:43.603Z,99251.02
2024-02-12T16:55:51.447Z,99253.44
2024-02-12T16:58:59.175Z,99257.13
2024-02-12T17:02:10.613Z,99262.95
2024-02-12T17:05:01.103Z,99262.63
2024-02-12T17:08:12.262Z,99268.80
2024-02-12T17:11:02.450Z,99270.52
2024-02-12T17:14:10.339Z,99274.68
2024-02-12T17:17:22.339Z,99276.37
2024-02-12T17:20:14.860Z,99275.42
2024-02-12T17:23:42.734Z,99275.23
2024-02-12T17:26:51.651Z,99281.52
2024-02-12T17:29:40.225Z,99284.77
2024-02-12T17:32:29.704Z,99284.53
2024-02-12T17:35:19.581Z,99285.06
2024-02-12T17:38:43.895Z,99294.45
2024-02-12T17:41:51.764Z,99302.05
2024-02-12T17:44:43.388Z,99303.27
2024-02-12T17:47:31.887Z,99307.89
2024-02-12T17:50:24.070Z,99312.93
2024-02-12T17:53:33.045Z,99313.82
2024-02-12T17:56:51.163Z,99317.13
2024-02-12T17:59:58.999Z,99317.25
2024-02-12T18:02:55.111Z,99320.14
2024-02-12T18:05:45.565Z,99319.28
2024-02-12T18:09:13.861Z,99322.13
2024-02-12T18:12:31.941Z,99323.60
2024-02-12T18:15:39.869Z,99325.54
2024-02-12T18:19:03.569Z,99332.98
2024-02-12T18:21:52.253Z,99331.02
2024-02-12T18:25:07.902Z,99339.67
2024-02-12T18:28:23.753Z,99338.23
2024-02-12T18:31:32.333Z,99340.30
2024-02-12T18:34:55.398Z,99341.11
2024-02-12T18:37:50.338Z,99343.24
2024-02-12T18:40:43.458Z,99348.69
2024-02-12T18:44:13.054Z,99351.42
2024-02-12T18:47:19.640Z,99356.72
2024-02-12T18:50:19.453Z,99358.03
2024-02-12T18:53:32.746Z,99361.70
2024-02-12T18:56:35.188Z,99370.70
2024-02-12T18:59:46.508Z,99370.60
2024-02-12T19:02:44.841Z,99377.59
2024-02-12T19:05:53.815Z,99389.98
2024-02-12T19:08:27.434Z,99394.52
2024-02-12T19:11:22.867Z,99397.96
2024-02-12T19:14:26.903Z,99403.33
2024-02-12T19:17:21.965Z,99408.20
2024-02-12T19:20:14.191Z,99406.10
2024-02-12T19:23:22.110Z,99409.23
2024-02-12T19:26:30.263Z,99413.02
2024-02-12T19:29:19.608Z,99419.13
2024-02-12T19:32:47.725Z,99421.09
2024-02-12T19:35:16.724Z,99426.42
2024-02-12T19:38:06.020Z,99430.91
2024-02-12T19:41:21.536Z,99436.36
2024-02-12T19:44:29.776Z,99438.05
2024-02-12T19:47:45.519Z,99442.70
2024-02-12T19:50:34.606Z,99447.56
2024-02-12T19:54:02.517Z,99448.02
2024-02-12T19:57:18.543Z,99451.55
2024-02-12T20:00:46.622Z,99452.67
2024-02-12T20:03:56.181Z,99450.04
2024-02-12T20:07:24.004Z,99457.84
2024-02-12T20:10:47.534Z,99460.45
2024-02-12T20:14:15.510Z,99463.56
2024-02-12T20:17:24.145Z,99463.66
2024-02-12T20:20:32.936Z,99469.73
2024-02-12T20:23:16.565Z,99468.59
2024-02-12T20:26:12.641Z,99469.23
2024-02-12T20:29:22.780Z,99471.82
2024-02-12T20:32:18.652Z,99474.50
2024-02-12T20:35:07.193Z,99473.97
2024-02-12T20:38:34.862Z,99473.58
2024-02-12T20:41:23.117Z,99469.81
2024-02-12T20:44:30.850Z,99470.55
2024-02-12T20:47:02.961Z,99468.04
2024-02-12T20:50:11.112Z,99467.94
2024-02-12T20:53:03.803Z,99464.94
2024-02-12T20:56:12.471Z,99464.13
2024-02-12T20:59:40.494Z,99463.60
2024-02-12T21:02:32.366Z,99462.13
2024-02-12T21:05:43.996Z,99461.11
2024-02-12T21:08:37.939Z,99464.36
2024-02-12T21:11:44.824Z,99463.69
2024-02-12T21:14:52.899Z,99469.70
2024-02-12T21:17:45.583Z,99468.40
2024-02-12T21:20:50.125Z,99470.23
2024-02-12T21:23:58.000Z,99473.02
2024-02-12T21:27:06.181Z,99470.94
2024-02-12T21:29:54.067Z,99473.79
2024-02-12T21:32:42.986Z,99477.92
2024-02-12T21:35:35.319Z,99478.77
2024-02-12T21:38:42.935Z,99479.52
2024-02-12T21:41:32.091Z,99479.80
2024-02-12T21:44:21.572Z,99478.56
2024-02-12T21:47:29.698Z,99475.98
2024-02-12T21:50:21.193Z,99480.86
2024-02-12T21:53:36.479Z,99484.93
2024-02-12T21:56:48.473Z,99491.28
2024-02-12T22:00:04.348Z,99494.17
2024-02-12T22:03:19.421Z,99498.49
2024-02-12T22:06:11.820Z,99493.61
2024-02-12T22:08:49.864Z,99500.27
2024-02-12T22:12:17.681Z,99505.24
2024-02-12T22:15:06.253Z,99502.26
2024-02-12T22:18:21.812Z,99505.08
2024-02-12T22:21:49.303Z,99514.50
2024-02-12T22:25:17.166Z,99514.96
2024-02-12T22:28:13.158Z,99520.70
2024-02-12T22:31:09.964Z,99523.36
2024-02-12T22:34:25.809Z,99522.39
2024-02-12T22:37:30.985Z,99519.25
2024-02-12T22:40:59.013Z,99525.20
2024-02-12T22:43:50.521Z,99528.73
2024-02-12T22:46:39.021Z,99527.23
2024-02-12T22:49:45.052Z,99530.71
2024-02-12T22:52:31.556Z,99532.70
2024-02-12T22:55:25.203Z,99532.98
2024-02-12T22:58:35.193Z,99532.70
2024-02-12T23:01:24.415Z,99531.41
2024-02-12T23:04:20.506Z,99532.77
2024-02-12T23:07:12.952Z,99532.77
2024-02-12T23:10:20.776Z,99533.25
2024-02-12T23:13:30.472Z,99529.84
2024-02-12T23:16:30.430Z,99524.84
2024-02-12T23:19:46.803Z,99526.94
2024-02-12T23:22:34.923Z,99530.73
2024-02-12T23:25:44.706Z,99529.43
2024-02-12T23:28:34.545Z,99531.74
2024-02-12T23:32:02.332Z,99536.16
2024-02-12T23:35:11.023Z,99543.02
2024-02-12T23:38:19.730Z,99541.04
2024-02-12T23:40:54.161Z,99539.90
2024-02-12T23:44:02.457Z,99544.80
2024-02-12T23:47:31.696Z,99540.88
2024-02-12T23:50:59.636Z,99538.07
2024-02-12T23:54:04.328Z,99537.74
2024-02-12T23:57:30.216Z,99538.60
